Time;durP1;ratioP1;P1;durP2;ratioP2;P2;SDS_P1;SDS_P2;PMS_P1;PMS_P2;Temp;Humidity;BMP_temperature;BMP_pressure;BME280_temperature;BME280_humidity;BME280_pressure;Samples;Min_cycle;Max_cycle;Signal;HPM_P1;HPM_P2
2022/12/19 00:03:54;;;;;;;26.75;10.63;;;;;;;;;;4835735;29;20135;-67
2022/12/19 00:06:21;;;;;;;24.65;10.15;;;;;;;;;;4829592;29;20048;-68
2022/12/19 00:09:13;;;;;;;30.25;9.00;;;;;;;;;;4820435;29;20101;-68
2022/12/19 00:11:40;;;;;;;27.23;9.90;;;;;;;;;;4918485;28;20130;-66
2022/12/19 00:14:07;;;;;;;26.75;8.85;;;;;;;;;;4946077;28;20077;-66
2022/12/19 00:16:34;;;;;;;28.42;9.27;;;;;;;;;;4960989;28;20068;-66
2022/12/19 00:19:02;;;;;;;27.23;9.82;;;;;;;;;;4961595;28;20073;-67
2022/12/19 00:21:29;;;;;;;22.45;9.38;;;;;;;;;;4998728;28;20057;-69
2022/12/19 00:23:55;;;;;;;29.40;10.00;;;;;;;;;;4964197;28;20054;-67
2022/12/19 00:26:24;;;;;;;24.95;10.63;;;;;;;;;;4978210;28;20058;-66
2022/12/19 00:28:52;;;;;;;29.38;10.02;;;;;;;;;;4970679;28;20046;-68
2022/12/19 00:31:19;;;;;;;30.05;10.55;;;;;;;;;;4991222;28;20046;-67
2022/12/19 00:33:45;;;;;;;26.73;9.60;;;;;;;;;;4996513;28;20146;-68
2022/12/19 00:36:15;;;;;;;29.55;10.00;;;;;;;;;;5003039;28;20054;-65
2022/12/19 00:38:42;;;;;;;28.33;9.57;;;;;;;;;;4996993;28;20104;-70
2022/12/19 00:41:09;;;;;;;23.40;9.48;;;;;;;;;;5018987;28;20093;-66
2022/12/19 00:43:36;;;;;;;24.65;9.00;;;;;;;;;;4982225;28;20053;-66
2022/12/19 00:46:03;;;;;;;28.30;10.02;;;;;;;;;;5000404;28;20058;-67
2022/12/19 00:48:30;;;;;;;27.40;10.27;;;;;;;;;;4970227;28;20068;-66
2022/12/19 00:50:59;;;;;;;24.02;9.10;;;;;;;;;;4987692;28;20054;-69
2022/12/19 00:53:27;;;;;;;23.50;8.10;;;;;;;;;;4998940;28;20121;-67
2022/12/19 00:55:53;;;;;;;23.75;8.88;;;;;;;;;;5012695;28;20068;-71
2022/12/19 00:58:20;;;;;;;26.67;10.57;;;;;;;;;;4988532;28;20095;-68
2022/12/19 01:00:46;;;;;;;23.80;8.90;;;;;;;;;;4975721;28;20140;-69
2022/12/19 01:03:13;;;;;;;29.85;9.70;;;;;;;;;;4988686;28;20054;-68
2022/12/19 01:05:39;;;;;;;29.50;9.20;;;;;;;;;;4987291;28;20054;-66
2022/12/19 01:08:06;;;;;;;27.90;9.82;;;;;;;;;;4987979;28;20058;-68
2022/12/19 01:10:34;;;;;;;27.67;10.18;;;;;;;;;;4989409;28;20042;-68
2022/12/19 01:12:59;;;;;;;25.45;8.13;;;;;;;;;;4986374;28;20049;-67
2022/12/19 01:15:26;;;;;;;26.65;9.32;;;;;;;;;;4982786;28;20072;-68
2022/12/19 01:17:52;;;;;;;23.60;8.70;;;;;;;;;;4973967;28;20053;-65
2022/12/19 01:20:20;;;;;;;25.08;9.40;;;;;;;;;;5009689;28;20068;-66
2022/12/19 01:22:46;;;;;;;32.88;10.43;;;;;;;;;;5002019;28;20127;-69
2022/12/19 01:25:13;;;;;;;27.73;8.93;;;;;;;;;;4979128;28;20127;-67
2022/12/19 01:27:42;;;;;;;24.83;9.15;;;;;;;;;;4962413;28;20132;-68
2022/12/19 01:30:09;;;;;;;25.65;9.27;;;;;;;;;;5010269;28;20073;-69
2022/12/19 01:32:36;;;;;;;26.35;9.35;;;;;;;;;;4983043;28;20053;-65
2022/12/19 01:35:03;;;;;;;23.90;9.55;;;;;;;;;;4994921;28;20073;-69
2022/12/19 01:37:29;;;;;;;27.15;9.50;;;;;;;;;;4983123;28;20124;-69
2022/12/19 01:39:56;;;;;;;22.23;9.07;;;;;;;;;;5016902;28;20054;-70
2022/12/19 01:42:23;;;;;;;27.38;9.38;;;;;;;;;;4999184;28;20058;-70
2022/12/19 01:45:21;;;;;;;28.05;10.02;;;;;;;;;;4997330;28;20077;-70
2022/12/19 01:47:47;;;;;;;;;;;;;;;;;;4996205;28;20064;-68
2022/12/19 01:50:17;;;;;;;19.38;7.03;;;;;;;;;;4984694;28;19929;-68
2022/12/19 01:52:44;;;;;;;24.05;8.77;;;;;;;;;;4996023;28;20145;-66
2022/12/19 01:55:14;;;;;;;25.63;9.18;;;;;;;;;;4996772;28;21010;-70
2022/12/19 01:57:41;;;;;;;24.52;9.63;;;;;;;;;;4996425;28;20054;-68
2022/12/19 02:00:09;;;;;;;28.15;10.15;;;;;;;;;;4985571;28;20065;-69
2022/12/19 02:02:38;;;;;;;20.60;7.97;;;;;;;;;;4994795;28;20045;-69
2022/12/19 02:05:04;;;;;;;24.10;9.80;;;;;;;;;;4974090;28;20046;-69
2022/12/19 02:07:31;;;;;;;27.50;9.52;;;;;;;;;;4997030;28;20053;-69
2022/12/19 02:09:58;;;;;;;25.23;9.82;;;;;;;;;;4956219;28;20045;-66
2022/12/19 02:12:26;;;;;;;26.58;8.93;;;;;;;;;;4971017;28;20055;-65
2022/12/19 02:14:53;;;;;;;24.77;9.15;;;;;;;;;;4967912;28;20061;-67
2022/12/19 02:17:24;;;;;;;25.30;9.32;;;;;;;;;;4991965;28;20057;-69
2022/12/19 02:20:05;;;;;;;25.27;8.85;;;;;;;;;;4970616;28;20054;-68
2022/12/19 02:22:37;;;;;;;21.98;8.57;;;;;;;;;;4960560;28;20054;-68
2022/12/19 02:25:18;;;;;;;22.67;9.52;;;;;;;;;;4957008;28;20108;-68
2022/12/19 02:28:02;;;;;;;28.67;9.82;;;;;;;;;;4940769;28;20084;-68
2022/12/19 02:30:42;;;;;;;28.95;8.07;;;;;;;;;;4967427;28;20058;-71
2022/12/19 02:33:12;;;;;;;23.23;8.50;;;;;;;;;;4977150;28;20054;-69
2022/12/19 02:35:41;;;;;;;30.83;9.85;;;;;;;;;;4967429;28;20096;-67
2022/12/19 02:38:11;;;;;;;24.63;8.98;;;;;;;;;;4982666;28;20058;-70
2022/12/19 02:40:40;;;;;;;27.95;9.55;;;;;;;;;;4971105;28;20053;-68
2022/12/19 02:43:08;;;;;;;24.48;8.63;;;;;;;;;;4964418;28;20424;-67
2022/12/19 02:45:37;;;;;;;24.45;8.07;;;;;;;;;;4997271;28;20050;-65
2022/12/19 02:48:05;;;;;;;24.48;8.80;;;;;;;;;;4953004;28;20168;-68
2022/12/19 02:50:35;;;;;;;23.20;9.00;;;;;;;;;;4971634;28;20057;-68
2022/12/19 02:53:02;;;;;;;20.17;8.20;;;;;;;;;;4976661;28;20053;-69
2022/12/19 02:55:30;;;;;;;23.95;8.77;;;;;;;;;;4974845;28;20049;-69
2022/12/19 02:58:11;;;;;;;20.85;7.72;;;;;;;;;;4967504;28;20120;-67
2022/12/19 03:00:43;;;;;;;20.23;7.75;;;;;;;;;;4960551;28;20046;-70
2022/12/19 03:03:14;;;;;;;22.23;7.88;;;;;;;;;;4885922;28;20169;-68
2022/12/19 03:05:45;;;;;;;20.98;8.48;;;;;;;;;;4943625;28;20062;-70
2022/12/19 03:08:16;;;;;;;21.17;8.15;;;;;;;;;;4999998;28;20069;-69
2022/12/19 03:10:44;;;;;;;18.98;7.57;;;;;;;;;;4980374;28;20041;-66
2022/12/19 03:13:12;;;;;;;22.83;8.10;;;;;;;;;;4978663;28;20053;-69
2022/12/19 03:15:42;;;;;;;18.55;7.20;;;;;;;;;;4995194;28;20060;-69
2022/12/19 03:18:09;;;;;;;22.08;8.15;;;;;;;;;;4985864;28;20057;-66
2022/12/19 03:20:40;;;;;;;18.88;7.47;;;;;;;;;;5001283;28;20082;-66
2022/12/19 03:23:06;;;;;;;21.23;7.88;;;;;;;;;;5028596;28;20053;-67
2022/12/19 03:25:33;;;;;;;20.30;8.18;;;;;;;;;;4964531;28;20046;-67
2022/12/19 03:28:01;;;;;;;23.33;8.00;;;;;;;;;;4977391;28;20164;-65
2022/12/19 03:30:29;;;;;;;23.33;8.07;;;;;;;;;;4984016;28;20141;-69
2022/12/19 03:32:57;;;;;;;19.83;7.60;;;;;;;;;;4993179;28;20053;-66
2022/12/19 03:35:26;;;;;;;18.30;7.30;;;;;;;;;;4955681;28;20061;-69
2022/12/19 03:37:52;;;;;;;;;;;;;;;;;;4976045;28;20050;-67
2022/12/19 03:40:20;;;;;;;17.25;6.15;;;;;;;;;;4980048;28;19926;-66
2022/12/19 03:45:36;;;;;;;18.83;7.70;;;;;;;;;;4975483;28;20050;-66
2022/12/19 03:48:07;;;;;;;21.33;7.75;;;;;;;;;;4997450;28;20061;-68
2022/12/19 03:50:41;;;;;;;21.23;7.85;;;;;;;;;;5006742;28;20115;-68
2022/12/19 03:53:13;;;;;;;22.60;6.43;;;;;;;;;;4976677;28;20057;-68
2022/12/19 03:55:42;;;;;;;19.17;7.13;;;;;;;;;;4977523;28;20054;-68
2022/12/19 03:58:10;;;;;;;18.13;7.32;;;;;;;;;;4997209;28;20053;-66
2022/12/19 04:00:41;;;;;;;18.85;6.72;;;;;;;;;;4996237;28;20060;-69
2022/12/19 04:03:10;;;;;;;19.15;6.75;;;;;;;;;;4984877;28;20062;-70
2022/12/19 04:05:38;;;;;;;17.65;7.05;;;;;;;;;;4958188;28;20064;-70
2022/12/19 04:08:06;;;;;;;18.08;7.32;;;;;;;;;;4984489;28;20085;-66
2022/12/19 04:10:34;;;;;;;16.73;6.97;;;;;;;;;;5000865;28;20050;-67
2022/12/19 04:13:03;;;;;;;21.90;6.97;;;;;;;;;;4976564;28;20098;-68
2022/12/19 04:15:33;;;;;;;20.08;7.20;;;;;;;;;;4967074;28;20045;-66
2022/12/19 04:18:00;;;;;;;21.27;7.55;;;;;;;;;;5003363;28;20216;-67
2022/12/19 04:20:30;;;;;;;18.50;7.45;;;;;;;;;;4971352;28;20052;-68
2022/12/19 04:22:57;;;;;;;20.55;7.28;;;;;;;;;;4986437;28;20050;-68
2022/12/19 04:25:25;;;;;;;19.48;6.78;;;;;;;;;;4971425;28;20057;-66
2022/12/19 04:27:53;;;;;;;17.73;7.07;;;;;;;;;;4999662;28;20056;-67
2022/12/19 04:30:20;;;;;;;17.90;6.73;;;;;;;;;;4980767;28;20139;-66
2022/12/19 04:32:47;;;;;;;18.48;7.05;;;;;;;;;;4996427;28;20309;-68
2022/12/19 04:35:14;;;;;;;19.58;7.90;;;;;;;;;;4974500;28;20058;-69
2022/12/19 04:37:42;;;;;;;20.00;6.72;;;;;;;;;;4979999;28;20053;-66
2022/12/19 04:40:09;;;;;;;21.70;7.10;;;;;;;;;;4995922;28;20512;-66
2022/12/19 04:42:36;;;;;;;15.38;6.32;;;;;;;;;;4984310;28;20062;-66
2022/12/19 04:45:02;;;;;;;21.95;6.55;;;;;;;;;;4977592;28;20049;-67
2022/12/19 04:47:29;;;;;;;17.70;7.07;;;;;;;;;;4996136;28;20054;-67
2022/12/19 04:49:55;;;;;;;17.58;6.57;;;;;;;;;;4976614;28;20054;-67
2022/12/19 04:52:23;;;;;;;18.92;7.10;;;;;;;;;;4970856;28;20056;-67
2022/12/19 04:54:56;;;;;;;16.17;6.60;;;;;;;;;;4993727;28;20075;-66
2022/12/19 04:57:23;;;;;;;13.82;5.60;;;;;;;;;;4987692;28;20051;-66
2022/12/19 04:59:49;;;;;;;16.23;5.78;;;;;;;;;;4983207;28;20050;-67
2022/12/19 05:02:16;;;;;;;15.85;6.43;;;;;;;;;;5003248;28;20062;-67
2022/12/19 05:04:42;;;;;;;16.83;6.45;;;;;;;;;;4987908;28;20057;-67
2022/12/19 05:07:09;;;;;;;15.95;6.65;;;;;;;;;;4990011;28;20049;-67
2022/12/19 05:09:35;;;;;;;14.88;6.00;;;;;;;;;;5002286;28;20057;-67
2022/12/19 05:12:03;;;;;;;14.98;5.88;;;;;;;;;;4981800;28;20058;-66
2022/12/19 05:14:30;;;;;;;15.13;5.70;;;;;;;;;;4960139;28;20065;-66
2022/12/19 05:16:56;;;;;;;16.58;5.93;;;;;;;;;;4979140;28;20069;-67
2022/12/19 05:19:23;;;;;;;13.20;5.60;;;;;;;;;;4978019;28;20214;-68
2022/12/19 05:21:50;;;;;;;12.90;5.53;;;;;;;;;;5001441;28;20089;-67
2022/12/19 05:24:16;;;;;;;16.55;5.55;;;;;;;;;;4975677;28;20076;-67
2022/12/19 05:26:43;;;;;;;14.45;5.57;;;;;;;;;;4974141;28;20053;-68
2022/12/19 05:29:11;;;;;;;14.20;5.63;;;;;;;;;;5000861;28;20064;-68
2022/12/19 05:31:38;;;;;;;;;;;;;;;;;;4967603;28;20087;-67
2022/12/19 05:34:04;;;;;;;12.85;4.45;;;;;;;;;;4999754;28;19932;-66
2022/12/19 05:36:31;;;;;;;14.90;5.63;;;;;;;;;;4979528;28;20145;-67
2022/12/19 05:38:57;;;;;;;12.98;5.18;;;;;;;;;;5002935;28;20046;-66
2022/12/19 05:41:24;;;;;;;14.30;5.40;;;;;;;;;;4982723;28;20113;-67
2022/12/19 05:43:51;;;;;;;13.05;5.75;;;;;;;;;;4993921;28;20171;-67
2022/12/19 05:46:19;;;;;;;11.98;4.60;;;;;;;;;;4985556;28;20042;-68
2022/12/19 05:48:46;;;;;;;12.00;5.18;;;;;;;;;;4971047;28;20054;-68
2022/12/19 05:51:12;;;;;;;13.93;5.30;;;;;;;;;;4961648;28;20058;-68
2022/12/19 05:53:39;;;;;;;13.93;5.10;;;;;;;;;;4961513;28;20054;-69
2022/12/19 05:56:07;;;;;;;13.30;5.22;;;;;;;;;;4970565;28;20051;-68
2022/12/19 05:58:34;;;;;;;13.98;5.10;;;;;;;;;;5004069;28;20062;-68
2022/12/19 06:01:03;;;;;;;11.57;4.70;;;;;;;;;;4987624;28;20042;-68
2022/12/19 06:03:31;;;;;;;13.93;5.25;;;;;;;;;;4983996;28;20060;-68
2022/12/19 06:06:01;;;;;;;13.93;4.93;;;;;;;;;;5011842;28;20057;-68
2022/12/19 06:08:28;;;;;;;11.95;4.43;;;;;;;;;;5010826;28;20059;-68
2022/12/19 06:10:54;;;;;;;10.75;4.32;;;;;;;;;;4997027;28;20061;-68
2022/12/19 06:13:21;;;;;;;12.80;5.10;;;;;;;;;;4951498;28;20057;-68
2022/12/19 06:15:47;;;;;;;13.25;4.32;;;;;;;;;;4948955;28;20100;-68
2022/12/19 06:18:14;;;;;;;12.15;4.80;;;;;;;;;;4954782;28;20070;-68
2022/12/19 06:20:42;;;;;;;11.73;4.45;;;;;;;;;;4965320;28;20296;-68
2022/12/19 06:23:18;;;;;;;11.43;4.50;;;;;;;;;;4926857;28;20130;-69
2022/12/19 06:25:44;;;;;;;14.30;4.40;;;;;;;;;;5004259;28;20053;-68
2022/12/19 06:28:14;;;;;;;11.32;3.83;;;;;;;;;;4983476;28;20084;-68
2022/12/19 06:30:40;;;;;;;11.50;4.22;;;;;;;;;;4979456;28;20204;-68
2022/12/19 06:33:07;;;;;;;10.75;4.57;;;;;;;;;;4974506;28;20073;-66
2022/12/19 06:35:34;;;;;;;13.80;4.97;;;;;;;;;;4977947;28;20215;-68
2022/12/19 06:38:04;;;;;;;9.52;3.90;;;;;;;;;;4988513;28;20117;-68
2022/12/19 06:43:14;;;;;;;13.45;4.53;;;;;;;;;;4959809;28;20073;-70
2022/12/19 06:45:42;;;;;;;10.75;4.35;;;;;;;;;;4964740;28;20085;-69
2022/12/19 06:48:09;;;;;;;9.63;4.00;;;;;;;;;;4981534;28;20049;-69
2022/12/19 06:50:35;;;;;;;11.48;4.28;;;;;;;;;;4976989;28;20112;-68
2022/12/19 06:53:04;;;;;;;10.05;4.15;;;;;;;;;;4974964;28;20046;-68
2022/12/19 06:55:30;;;;;;;11.73;4.20;;;;;;;;;;4967920;28;20084;-68
2022/12/19 06:57:57;;;;;;;11.38;4.22;;;;;;;;;;4986667;28;20053;-69
2022/12/19 07:00:23;;;;;;;10.43;4.03;;;;;;;;;;4961546;28;20137;-68
2022/12/19 07:02:51;;;;;;;12.25;4.78;;;;;;;;;;4994569;28;21006;-68
2022/12/19 07:05:18;;;;;;;12.13;4.43;;;;;;;;;;4956610;28;20058;-68
2022/12/19 07:07:45;;;;;;;10.18;4.35;;;;;;;;;;4977190;28;20065;-68
2022/12/19 07:10:14;;;;;;;12.20;4.20;;;;;;;;;;4953876;28;20050;-68
2022/12/19 07:12:40;;;;;;;10.15;4.15;;;;;;;;;;4970241;28;20054;-68
2022/12/19 07:15:08;;;;;;;8.65;3.92;;;;;;;;;;4989823;28;20054;-70
2022/12/19 07:17:35;;;;;;;11.00;3.97;;;;;;;;;;4990906;28;20061;-67
2022/12/19 07:20:01;;;;;;;10.00;3.78;;;;;;;;;;4978759;28;20058;-68
2022/12/19 07:22:30;;;;;;;7.82;3.50;;;;;;;;;;5012159;28;20062;-67
2022/12/19 07:24:56;;;;;;;10.38;4.03;;;;;;;;;;4952540;28;20145;-67
2022/12/19 07:27:24;;;;;;;8.45;3.45;;;;;;;;;;4966223;28;20058;-68
2022/12/19 07:29:51;;;;;;;9.98;4.22;;;;;;;;;;4964400;28;20080;-68
2022/12/19 07:32:18;;;;;;;10.38;3.55;;;;;;;;;;4992459;28;20054;-69
2022/12/19 07:34:44;;;;;;;10.85;3.72;;;;;;;;;;4988530;28;20069;-68
2022/12/19 07:37:14;;;;;;;10.13;4.35;;;;;;;;;;4989610;28;20075;-68
2022/12/19 07:39:41;;;;;;;10.00;3.92;;;;;;;;;;4996231;28;20077;-68
2022/12/19 07:42:07;;;;;;;7.85;3.40;;;;;;;;;;4991987;28;20054;-68
2022/12/19 07:44:35;;;;;;;8.00;3.70;;;;;;;;;;4993830;28;20061;-70
2022/12/19 07:47:02;;;;;;;9.43;3.58;;;;;;;;;;4983554;28;20061;-71
2022/12/19 07:49:29;;;;;;;8.80;3.38;;;;;;;;;;4986307;28;20073;-70
2022/12/19 07:51:56;;;;;;;10.30;3.55;;;;;;;;;;4986522;28;20141;-70
2022/12/19 07:54:23;;;;;;;8.93;3.38;;;;;;;;;;4905952;28;20050;-70
2022/12/19 07:56:52;;;;;;;8.95;3.28;;;;;;;;;;4918102;28;20055;-71
2022/12/19 07:59:25;;;;;;;9.02;3.28;;;;;;;;;;4867550;28;20047;-71
2022/12/19 08:01:53;;;;;;;8.38;3.22;;;;;;;;;;4899196;28;20189;-71
2022/12/19 08:04:22;;;;;;;7.43;3.08;;;;;;;;;;4944878;28;21267;-71
2022/12/19 08:06:49;;;;;;;6.57;2.97;;;;;;;;;;4952537;28;20054;-70
2022/12/19 08:09:16;;;;;;;7.63;3.28;;;;;;;;;;4954629;28;20073;-70
2022/12/19 08:11:47;;;;;;;7.90;3.25;;;;;;;;;;4977160;28;20066;-71
2022/12/19 08:14:14;;;;;;;7.53;3.00;;;;;;;;;;4939443;28;20056;-71
2022/12/19 08:16:41;;;;;;;8.55;2.75;;;;;;;;;;4971932;28;20061;-70
2022/12/19 08:19:13;;;;;;;7.38;3.25;;;;;;;;;;4954467;28;20069;-70
2022/12/19 08:21:40;;;;;;;7.40;3.50;;;;;;;;;;4945827;28;20149;-70
2022/12/19 08:24:07;;;;;;;9.02;3.00;;;;;;;;;;4937379;28;20119;-70
2022/12/19 08:26:37;;;;;;;9.18;3.22;;;;;;;;;;4968655;28;20054;-70
2022/12/19 08:29:04;;;;;;;7.47;3.22;;;;;;;;;;4987890;28;20498;-70
2022/12/19 08:31:31;;;;;;;8.50;3.13;;;;;;;;;;4965486;28;20057;-70
2022/12/19 08:33:58;;;;;;;8.00;2.92;;;;;;;;;;4933639;28;20050;-70
2022/12/19 08:36:26;;;;;;;7.55;3.25;;;;;;;;;;4942311;28;20134;-71
2022/12/19 08:39:00;;;;;;;7.40;3.08;;;;;;;;;;4899705;29;20051;-72
2022/12/19 08:41:27;;;;;;;8.50;3.25;;;;;;;;;;4925606;28;20066;-70
2022/12/19 08:43:54;;;;;;;7.03;2.95;;;;;;;;;;4887051;28;20062;-69
2022/12/19 08:46:23;;;;;;;7.47;3.00;;;;;;;;;;4942915;28;20045;-71
2022/12/19 08:48:55;;;;;;;7.45;3.35;;;;;;;;;;4986960;28;20053;-69
2022/12/19 08:51:22;;;;;;;5.85;2.78;;;;;;;;;;4976362;28;20054;-70
2022/12/19 08:53:51;;;;;;;9.95;3.47;;;;;;;;;;4942584;28;20116;-71
2022/12/19 08:56:19;;;;;;;8.00;2.88;;;;;;;;;;4925849;28;20070;-70
2022/12/19 08:58:48;;;;;;;12.48;3.38;;;;;;;;;;4956222;28;20082;-71
2022/12/19 09:01:17;;;;;;;7.30;3.05;;;;;;;;;;4952519;28;20084;-70
2022/12/19 09:03:45;;;;;;;7.72;3.17;;;;;;;;;;4937537;28;20144;-70
2022/12/19 09:06:18;;;;;;;7.50;3.28;;;;;;;;;;4974668;28;20057;-69
2022/12/19 09:08:45;;;;;;;7.10;3.00;;;;;;;;;;4964394;28;20126;-70
2022/12/19 09:11:16;;;;;;;9.95;3.28;;;;;;;;;;4968215;28;20051;-70
2022/12/19 09:13:43;;;;;;;8.52;3.00;;;;;;;;;;5001771;28;20137;-70
2022/12/19 09:16:13;;;;;;;6.32;2.85;;;;;;;;;;4973104;28;20077;-70
2022/12/19 09:18:42;;;;;;;7.28;3.10;;;;;;;;;;4956165;28;20077;-70
2022/12/19 09:21:10;;;;;;;9.23;2.95;;;;;;;;;;4950248;28;20081;-70
2022/12/19 09:23:41;;;;;;;8.77;3.10;;;;;;;;;;4956553;28;20077;-70
2022/12/19 09:26:11;;;;;;;8.95;2.58;;;;;;;;;;4964300;28;20077;-70
2022/12/19 09:28:47;;;;;;;7.65;3.03;;;;;;;;;;4948511;28;20058;-70
2022/12/19 09:31:15;;;;;;;7.00;2.90;;;;;;;;;;4958749;28;20626;-70
2022/12/19 09:33:45;;;;;;;6.82;2.58;;;;;;;;;;4957059;28;20096;-69
2022/12/19 09:36:19;;;;;;;6.82;3.03;;;;;;;;;;4943322;28;20058;-69
2022/12/19 09:38:46;;;;;;;6.60;2.90;;;;;;;;;;4954999;28;20062;-69
2022/12/19 09:41:30;;;;;;;6.05;2.67;;;;;;;;;;4943036;28;20136;-70
2022/12/19 09:44:15;;;;;;;7.68;2.65;;;;;;;;;;4965368;28;20072;-69
2022/12/19 09:46:47;;;;;;;6.97;2.70;;;;;;;;;;4965388;28;20072;-70
2022/12/19 09:49:19;;;;;;;7.03;2.72;;;;;;;;;;4972480;28;20045;-71
2022/12/19 09:51:49;;;;;;;6.40;2.72;;;;;;;;;;4973141;28;20056;-70
2022/12/19 09:54:18;;;;;;;7.30;3.08;;;;;;;;;;4954109;28;20061;-70
2022/12/19 09:56:47;;;;;;;6.10;2.65;;;;;;;;;;4928592;28;20110;-70
2022/12/19 09:59:21;;;;;;;8.27;3.40;;;;;;;;;;4929564;28;20054;-69
2022/12/19 10:01:59;;;;;;;9.57;2.85;;;;;;;;;;4992990;28;20081;-69
2022/12/19 10:04:33;;;;;;;5.15;2.35;;;;;;;;;;4981514;28;20057;-69
2022/12/19 10:07:00;;;;;;;;;;;;;;;;;;4960033;28;20062;-69
2022/12/19 10:09:31;;;;;;;8.55;2.78;;;;;;;;;;4990194;28;19936;-69
2022/12/19 10:12:06;;;;;;;7.88;2.63;;;;;;;;;;4951443;28;20061;-69
2022/12/19 10:14:48;;;;;;;6.82;2.75;;;;;;;;;;4973866;28;20057;-69
2022/12/19 10:17:18;;;;;;;6.85;2.60;;;;;;;;;;4976251;28;20058;-71
2022/12/19 10:19:53;;;;;;;7.53;2.90;;;;;;;;;;4967068;28;20053;-69
2022/12/19 10:22:27;;;;;;;9.73;2.72;;;;;;;;;;4979596;28;20066;-70
2022/12/19 10:25:04;;;;;;;6.68;2.65;;;;;;;;;;4952126;28;20049;-69
2022/12/19 10:27:46;;;;;;;5.15;2.30;;;;;;;;;;4978376;28;20066;-71
2022/12/19 10:30:15;;;;;;;7.13;2.58;;;;;;;;;;4996284;28;20057;-69
2022/12/19 10:32:48;;;;;;;8.27;2.90;;;;;;;;;;4988233;28;20117;-70
2022/12/19 10:35:15;;;;;;;6.28;2.53;;;;;;;;;;4910564;28;20056;-69
2022/12/19 10:37:46;;;;;;;7.90;3.00;;;;;;;;;;4949416;28;20065;-71
2022/12/19 10:40:16;;;;;;;7.70;2.88;;;;;;;;;;4967296;28;20068;-70
2022/12/19 10:42:48;;;;;;;5.82;2.53;;;;;;;;;;4964440;28;20053;-70
2022/12/19 10:45:20;;;;;;;7.95;2.97;;;;;;;;;;4925594;28;20066;-71
2022/12/19 10:47:54;;;;;;;6.65;2.45;;;;;;;;;;4942626;28;20051;-70
2022/12/19 10:50:26;;;;;;;8.07;3.05;;;;;;;;;;4934549;28;20055;-70
2022/12/19 10:52:56;;;;;;;8.77;2.80;;;;;;;;;;4836531;28;20056;-70
2022/12/19 10:55:31;;;;;;;6.97;2.67;;;;;;;;;;4940711;28;20050;-72
2022/12/19 10:58:02;;;;;;;6.07;2.58;;;;;;;;;;4939883;28;20042;-71
2022/12/19 11:00:31;;;;;;;6.60;2.97;;;;;;;;;;4972737;28;20141;-71
2022/12/19 11:03:07;;;;;;;6.57;2.63;;;;;;;;;;4911366;28;20058;-71
2022/12/19 11:05:42;;;;;;;7.22;2.97;;;;;;;;;;4966072;28;20248;-70
2022/12/19 11:08:14;;;;;;;5.28;2.53;;;;;;;;;;4941025;28;20063;-70
2022/12/19 11:10:43;;;;;;;5.57;2.63;;;;;;;;;;4928830;28;20050;-70
2022/12/19 11:13:32;;;;;;;6.10;2.70;;;;;;;;;;4930963;28;20069;-70
2022/12/19 11:16:03;;;;;;;6.68;2.63;;;;;;;;;;4974383;28;20058;-71
2022/12/19 11:18:34;;;;;;;4.80;2.42;;;;;;;;;;4996096;28;20076;-70
2022/12/19 11:21:02;;;;;;;6.97;2.47;;;;;;;;;;4989996;28;20089;-70
2022/12/19 11:23:30;;;;;;;7.20;2.60;;;;;;;;;;4971660;28;20115;-70
2022/12/19 11:26:25;;;;;;;5.10;2.25;;;;;;;;;;4993706;28;21172;-70
2022/12/19 11:28:53;;;;;;;10.32;2.45;;;;;;;;;;4964962;28;20084;-70
2022/12/19 11:31:31;;;;;;;7.68;3.10;;;;;;;;;;4991934;28;20050;-70
2022/12/19 11:34:02;;;;;;;6.88;2.55;;;;;;;;;;4929289;28;20082;-70
2022/12/19 11:36:35;;;;;;;6.38;2.60;;;;;;;;;;4970461;28;20058;-70
2022/12/19 11:39:10;;;;;;;11.90;2.88;;;;;;;;;;4985909;28;20050;-70
2022/12/19 11:41:45;;;;;;;5.82;2.28;;;;;;;;;;4917926;28;21062;-70
2022/12/19 11:44:21;;;;;;;8.80;2.60;;;;;;;;;;4905345;28;20054;-69
2022/12/19 11:46:54;;;;;;;5.88;2.40;;;;;;;;;;4935923;28;20073;-71
2022/12/19 11:49:25;;;;;;;5.95;2.30;;;;;;;;;;4950907;28;20061;-69
2022/12/19 11:51:59;;;;;;;3.97;2.00;;;;;;;;;;4905822;28;20064;-70
2022/12/19 11:54:43;;;;;;;7.03;2.72;;;;;;;;;;4963557;28;20116;-70
2022/12/19 11:57:14;;;;;;;5.35;2.38;;;;;;;;;;4957644;28;20050;-70
2022/12/19 11:59:50;;;;;;;8.00;2.55;;;;;;;;;;4966574;28;20127;-70
2022/12/19 12:02:37;;;;;;;5.60;2.15;;;;;;;;;;4965827;28;20041;-70
2022/12/19 12:05:23;;;;;;;5.25;2.70;;;;;;;;;;4879750;28;20058;-71
2022/12/19 12:07:55;;;;;;;5.38;2.25;;;;;;;;;;4948826;28;20058;-70
2022/12/19 12:10:22;;;;;;;5.32;2.28;;;;;;;;;;4974214;28;20082;-70
2022/12/19 12:13:03;;;;;;;5.38;2.30;;;;;;;;;;4945317;28;20093;-70
2022/12/19 12:15:44;;;;;;;4.93;2.33;;;;;;;;;;4941271;28;20043;-70
2022/12/19 12:18:21;;;;;;;6.35;2.05;;;;;;;;;;4946570;28;20143;-70
2022/12/19 12:21:00;;;;;;;5.32;2.38;;;;;;;;;;4942565;28;20045;-70
2022/12/19 12:23:32;;;;;;;5.65;2.33;;;;;;;;;;4946795;28;20050;-71
2022/12/19 12:26:04;;;;;;;7.82;2.30;;;;;;;;;;4950178;28;20062;-70
2022/12/19 12:28:44;;;;;;;5.97;2.35;;;;;;;;;;4964530;28;20081;-71
2022/12/19 12:31:16;;;;;;;4.63;2.38;;;;;;;;;;4937548;28;20050;-71
2022/12/19 12:33:54;;;;;;;5.45;2.22;;;;;;;;;;4902229;28;20047;-70
2022/12/19 12:36:28;;;;;;;4.97;2.25;;;;;;;;;;4926527;28;20279;-71
2022/12/19 12:39:02;;;;;;;3.85;1.90;;;;;;;;;;4934218;28;20058;-71
2022/12/19 12:44:22;;;;;;;4.60;2.05;;;;;;;;;;4992372;28;20072;-71
2022/12/19 12:46:50;;;;;;;6.80;2.40;;;;;;;;;;4945747;28;20062;-72
2022/12/19 12:49:33;;;;;;;5.07;2.28;;;;;;;;;;4957396;28;20054;-72
2022/12/19 12:52:07;;;;;;;4.05;1.90;;;;;;;;;;4941012;28;20414;-71
2022/12/19 12:54:45;;;;;;;7.28;2.10;;;;;;;;;;4970421;28;20716;-72
2022/12/19 12:57:19;;;;;;;7.20;2.33;;;;;;;;;;5011269;28;20057;-71
2022/12/19 12:59:49;;;;;;;7.85;2.38;;;;;;;;;;4977704;28;20093;-72
2022/12/19 13:02:18;;;;;;;6.07;2.30;;;;;;;;;;4979971;28;20061;-73
2022/12/19 13:04:55;;;;;;;6.50;2.13;;;;;;;;;;4962571;28;20059;-72
2022/12/19 13:07:33;;;;;;;6.35;2.25;;;;;;;;;;4922025;28;20167;-73
2022/12/19 13:59:42;;;;;;;6.13;2.22;;;;;;;;;;6155047;22;20021;-74
2022/12/19 14:02:16;;;;;;;6.15;2.22;;;;;;;;;;5873513;23;1470443;-75
2022/12/19 14:04:44;;;;;;;5.95;2.30;;;;;;;;;;5995325;23;20034;-73
2022/12/19 14:39:15;;;;;;;5.80;2.13;;;;;;;;;;6092790;22;1585619;-76
2022/12/19 15:00:29;;;;;;;4.72;2.00;;;;;;;;;;6128691;22;1582048;-73
2022/12/19 15:03:00;;;;;;;8.18;2.60;;;;;;;;;;6051554;23;20512;-75
2022/12/19 15:05:28;;;;;;;6.07;2.85;;;;;;;;;;6029628;23;20056;-74
2022/12/19 15:07:55;;;;;;;;;;;;;;;;;;6027665;23;20022;-75
2022/12/19 15:14:50;;;;;;;5.95;2.42;;;;;;;;;;4962660;27;2843213;-74
2022/12/19 15:22:35;;;;;;;5.80;2.35;;;;;;;;;;5005617;27;20721;-75
2022/12/19 15:38:42;;;;;;;5.72;2.03;;;;;;;;;;5071499;27;20406;-71
2022/12/19 15:41:11;;;;;;;6.65;2.42;;;;;;;;;;5053861;28;20052;-72
2022/12/19 15:43:38;;;;;;;5.50;2.50;;;;;;;;;;5017226;28;20048;-72
2022/12/19 15:46:05;;;;;;;6.30;2.97;;;;;;;;;;4996160;28;20509;-74
2022/12/19 15:48:33;;;;;;;5.95;2.67;;;;;;;;;;4954317;28;20164;-73
2022/12/19 15:51:00;;;;;;;5.97;2.55;;;;;;;;;;4964491;28;20061;-72
2022/12/19 15:56:15;;;;;;;6.15;2.45;;;;;;;;;;5015710;27;20427;-72
2022/12/19 15:58:42;;;;;;;4.43;2.10;;;;;;;;;;4973032;28;20088;-72
2022/12/19 16:01:11;;;;;;;5.88;2.55;;;;;;;;;;4942599;28;20070;-71
2022/12/19 16:03:38;;;;;;;4.68;2.17;;;;;;;;;;4882688;28;20078;-71
2022/12/19 16:06:06;;;;;;;5.97;2.50;;;;;;;;;;4893797;28;20051;-73
2022/12/19 16:08:33;;;;;;;4.72;2.40;;;;;;;;;;4936915;28;20047;-72
2022/12/19 16:18:20;;;;;;;5.07;2.05;;;;;;;;;;4844334;29;20048;-71
2022/12/19 16:20:47;;;;;;;6.30;2.60;;;;;;;;;;4922553;28;20062;-71
2022/12/19 16:23:13;;;;;;;6.03;2.47;;;;;;;;;;4946556;28;20050;-72
2022/12/19 16:25:41;;;;;;;5.00;2.10;;;;;;;;;;4927966;28;20053;-71
2022/12/19 16:28:14;;;;;;;4.53;2.00;;;;;;;;;;4955486;28;20054;-71
2022/12/19 16:30:57;;;;;;;4.93;2.45;;;;;;;;;;4924570;28;20048;-71
2022/12/19 16:36:11;;;;;;;6.30;2.45;;;;;;;;;;5046713;27;20410;-72
2022/12/19 16:38:40;;;;;;;5.90;2.22;;;;;;;;;;5047625;28;20056;-73
2022/12/19 16:41:11;;;;;;;5.78;2.33;;;;;;;;;;5004732;28;20384;-74
2022/12/19 16:43:41;;;;;;;6.40;2.70;;;;;;;;;;4987612;28;20119;-75
2022/12/19 16:46:13;;;;;;;6.68;2.25;;;;;;;;;;4998954;28;20056;-75
2022/12/19 16:56:24;;;;;;;6.88;2.42;;;;;;;;;;4984502;28;20464;-75
2022/12/19 17:06:11;;;;;;;5.90;2.47;;;;;;;;;;4803958;29;20063;-73
2022/12/19 17:08:38;;;;;;;6.57;2.63;;;;;;;;;;4855250;29;20317;-74
2022/12/19 17:18:45;;;;;;;5.47;2.60;;;;;;;;;;5015948;27;20429;-71
2022/12/19 17:21:15;;;;;;;6.20;2.38;;;;;;;;;;4935463;28;20049;-70
2022/12/19 17:23:45;;;;;;;6.50;2.25;;;;;;;;;;4946322;28;20057;-72
2022/12/19 17:26:11;;;;;;;10.13;2.83;;;;;;;;;;4925154;28;20059;-71
2022/12/19 17:28:38;;;;;;;4.97;2.20;;;;;;;;;;4964771;28;20119;-70
2022/12/19 17:31:07;;;;;;;6.65;2.80;;;;;;;;;;4965082;28;20261;-71
2022/12/19 17:33:35;;;;;;;5.50;2.50;;;;;;;;;;4959955;28;20050;-70
2022/12/19 17:36:04;;;;;;;5.35;2.38;;;;;;;;;;4918620;28;20054;-70
2022/12/19 17:38:31;;;;;;;5.47;2.30;;;;;;;;;;4954051;28;20053;-70
2022/12/19 17:40:58;;;;;;;5.00;2.47;;;;;;;;;;4976036;28;20052;-70
2022/12/19 17:43:31;;;;;;;6.15;2.33;;;;;;;;;;4954571;28;20061;-70